Time;durP1;ratioP1;P1;durP2;ratioP2;P2;SDS_P1;SDS_P2;PMS_P1;PMS_P2;Temp;Humidity;BMP_temperature;BMP_pressure;BME280_temperature;BME280_humidity;BME280_pressure;Samples;Min_cycle;Max_cycle;Signal;HPM_P1;HPM_P2
2023/06/20 00:01:00;;;;;;;15.57;7.20;;;;;;;18.55;93.45;100372.66;123576;1102;104245;-78
2023/06/20 00:03:46;;;;;;;14.97;7.43;;;;;;;18.55;93.44;100373.53;123791;1102;104274;-78
2023/06/20 00:06:19;;;;;;;12.57;6.47;;;;;;;18.55;93.96;100372.66;123682;1102;104307;-76
2023/06/20 00:08:50;;;;;;;12.00;6.70;;;;;;;18.54;94.13;100373.53;123645;1102;104801;-77
2023/06/20 00:11:21;;;;;;;13.20;6.90;;;;;;;18.53;93.58;100377.05;123560;1099;104255;-78
2023/06/20 00:13:53;;;;;;;14.87;7.10;;;;;;;18.53;94.53;100375.31;123672;1099;104188;-76
2023/06/20 00:16:24;;;;;;;14.40;6.83;;;;;;;18.53;93.86;100369.99;123605;1102;104377;-77
2023/06/20 00:18:56;;;;;;;14.90;7.35;;;;;;;18.54;93.88;100371.74;123549;1102;104287;-78
2023/06/20 00:21:28;;;;;;;14.07;7.30;;;;;;;18.56;94.15;100364.68;123543;1102;104277;-78
2023/06/20 00:23:59;;;;;;;12.50;7.40;;;;;;;18.57;94.33;100365.55;123644;1102;104248;-77
2023/06/20 00:26:30;;;;;;;11.57;7.07;;;;;;;18.58;94.43;100357.59;123699;1103;104328;-76
2023/06/20 00:29:01;;;;;;;14.90;7.23;;;;;;;18.60;94.41;100360.25;123627;1102;104280;-76
2023/06/20 00:31:33;;;;;;;14.00;7.50;;;;;;;18.59;94.23;100356.72;123641;1099;104316;-78
2023/06/20 00:34:04;;;;;;;11.80;7.20;;;;;;;18.59;94.25;100359.37;123572;1099;104245;-76
2023/06/20 00:36:38;;;;;;;13.00;7.00;;;;;;;18.61;94.47;100354.06;123544;1099;104364;-77
2023/06/20 00:39:10;;;;;;;12.83;7.00;;;;;;;18.61;95.08;100356.72;123570;1102;104255;-75
2023/06/20 00:41:43;;;;;;;12.47;7.17;;;;;;;18.61;94.68;100354.06;123733;1102;104402;-77
2023/06/20 00:44:17;;;;;;;12.95;7.25;;;;;;;18.61;95.52;100356.72;123590;1102;104469;-76
2023/06/20 00:46:48;;;;;;;11.40;6.03;;;;;;;18.59;94.99;100351.40;123619;1102;104226;-78
2023/06/20 00:49:20;;;;;;;12.03;6.93;;;;;;;18.59;95.16;100354.05;123614;1102;104297;-78
2023/06/20 00:51:52;;;;;;;13.13;6.67;;;;;;;18.58;95.06;100354.93;123635;1102;104268;-78
2023/06/20 00:54:23;;;;;;;12.07;6.73;;;;;;;18.58;95.22;100362.03;123600;1102;104684;-77
2023/06/20 00:56:54;;;;;;;12.50;6.57;;;;;;;18.55;94.64;100351.39;123632;1102;104383;-77
2023/06/20 00:59:25;;;;;;;11.30;6.77;;;;;;;18.54;94.96;100355.80;123524;1099;104361;-76
2023/06/20 01:01:57;;;;;;;13.97;7.23;;;;;;;18.53;95.56;100356.70;123633;1102;104686;-78
2023/06/20 01:04:29;;;;;;;8.83;6.07;;;;;;;18.50;95.26;100352.27;123683;1102;102870;-77
2023/06/20 01:07:11;;;;;;;14.35;7.40;;;;;;;18.45;95.58;100339.85;123797;1102;104341;-78
2023/06/20 01:09:53;;;;;;;11.07;7.07;;;;;;;18.43;95.36;100341.63;123547;1099;104800;-77
2023/06/20 01:12:43;;;;;;;11.30;6.70;;;;;;;18.39;95.82;100345.19;123654;1099;104701;-78
2023/06/20 01:15:21;;;;;;;11.97;7.10;;;;;;;18.38;96.28;100333.66;123673;1102;104217;-79
2023/06/20 01:18:02;;;;;;;12.93;6.93;;;;;;;18.36;95.91;100345.19;123734;1099;104393;-77
2023/06/20 01:20:43;;;;;;;12.30;7.20;;;;;;;18.33;95.66;100341.62;123681;1102;104329;-78
2023/06/20 01:23:22;;;;;;;13.23;7.03;;;;;;;18.31;96.18;100339.87;123604;1102;104466;-77
2023/06/20 01:26:02;;;;;;;13.60;6.60;;;;;;;18.29;95.53;100333.64;123763;1102;104348;-79
2023/06/20 01:28:40;;;;;;;16.27;7.27;;;;;;;18.27;95.93;100343.39;123764;1102;104344;-78
2023/06/20 01:31:15;;;;;;;12.20;7.07;;;;;;;18.27;95.86;100333.64;123573;1102;104245;-77
2023/06/20 01:33:51;;;;;;;15.00;7.10;;;;;;;18.25;95.80;100337.20;123652;1102;104294;-77
2023/06/20 01:36:26;;;;;;;13.77;6.97;;;;;;;18.23;95.69;100334.54;123602;1101;104498;-78
2023/06/20 01:39:03;;;;;;;13.03;6.87;;;;;;;18.23;95.75;100334.54;123757;1102;104248;-77
2023/06/20 01:41:40;;;;;;;12.07;6.70;;;;;;;18.21;95.80;100330.97;123796;1102;111676;-79
2023/06/20 01:44:15;;;;;;;13.43;6.90;;;;;;;18.18;96.18;100328.31;123691;1102;104211;-81
2023/06/20 01:46:48;;;;;;;12.90;7.00;;;;;;;18.16;96.14;100339.84;123590;1102;104270;-78
2023/06/20 01:49:20;;;;;;;13.00;6.92;;;;;;;18.13;95.97;100338.92;123630;1102;104389;-78
2023/06/20 01:51:56;;;;;;;12.53;6.60;;;;;;;18.12;96.01;100341.58;123559;1100;104348;-77
2023/06/20 01:54:31;;;;;;;14.50;7.43;;;;;;;18.09;96.12;100337.16;123717;1102;104211;-79
2023/06/20 01:57:05;;;;;;;12.60;6.90;;;;;;;18.09;95.93;100339.82;123818;1099;104367;-78
2023/06/20 01:59:38;;;;;;;10.30;6.60;;;;;;;18.09;96.12;100344.22;123740;1102;104553;-78
2023/06/20 02:02:11;;;;;;;12.63;6.57;;;;;;;18.06;95.99;100341.56;123788;1102;107892;-78
2023/06/20 02:04:45;;;;;;;11.17;6.23;;;;;;;18.07;95.88;100338.03;123662;1102;104370;-77
2023/06/20 02:07:18;;;;;;;12.17;6.63;;;;;;;18.06;96.02;100336.25;123535;1102;104303;-79
2023/06/20 02:09:50;;;;;;;9.83;6.10;;;;;;;18.05;96.06;100334.50;123646;1101;104226;-78
2023/06/20 02:12:22;;;;;;;10.10;6.07;;;;;;;18.05;95.80;100334.50;123546;1102;104303;-77
2023/06/20 02:14:55;;;;;;;8.80;5.93;;;;;;;18.03;95.82;100338.89;123491;1100;104274;-81
2023/06/20 02:17:27;;;;;;;9.63;5.97;;;;;;;18.02;95.35;100338.02;123609;1102;104328;-77
2023/06/20 02:19:58;;;;;;;10.67;6.17;;;;;;;18.00;95.02;100331.83;123599;1099;104249;-77
2023/06/20 02:22:31;;;;;;;10.47;6.40;;;;;;;17.99;95.38;100340.66;123633;1102;104172;-78
2023/06/20 02:25:06;;;;;;;13.03;6.70;;;;;;;17.96;95.41;100336.22;123607;1102;104274;-78
2023/06/20 02:27:40;;;;;;;10.23;6.20;;;;;;;17.98;95.36;100335.35;123563;1101;104352;-79
2023/06/20 02:30:14;;;;;;;12.35;6.45;;;;;;;17.97;95.40;100342.44;123686;1102;104293;-79
2023/06/20 02:32:47;;;;;;;13.70;5.93;;;;;;;17.96;95.30;100344.19;123735;1102;104315;-78
2023/06/20 02:35:23;;;;;;;12.83;6.47;;;;;;;17.94;95.17;100332.69;123540;1102;104382;-78
2023/06/20 02:37:54;;;;;;;;;;;;;;;17.95;94.98;100344.18;123608;1099;104246;-79
2023/06/20 02:40:27;;;;;;;10.90;5.85;;;;;;;17.94;95.00;100343.30;123525;1099;104297;-77
2023/06/20 02:42:58;;;;;;;10.27;6.10;;;;;;;17.96;95.03;100349.50;123499;1102;104273;-77
2023/06/20 02:45:32;;;;;;;13.90;6.75;;;;;;;17.99;95.08;100353.06;123514;1102;104354;-79
2023/06/20 02:48:17;;;;;;;9.03;5.87;;;;;;;18.00;94.67;100362.78;123638;1102;104389;-79
2023/06/20 02:51:04;;;;;;;10.30;5.77;;;;;;;18.01;95.11;100359.25;123501;1102;104311;-78
2023/06/20 02:53:45;;;;;;;10.27;6.00;;;;;;;18.02;94.58;100358.38;123590;1102;106968;-78
2023/06/20 02:56:18;;;;;;;11.50;6.10;;;;;;;18.02;95.03;100358.38;123590;1100;104350;-78
2023/06/20 02:58:55;;;;;;;9.98;5.53;;;;;;;18.02;94.96;100369.88;123521;1102;104317;-78
2023/06/20 03:01:28;;;;;;;12.55;5.90;;;;;;;18.02;94.79;100371.66;123513;1099;104326;-77
2023/06/20 03:04:07;;;;;;;11.97;6.07;;;;;;;18.02;94.63;100379.63;123478;1102;104402;-78
2023/06/20 03:06:39;;;;;;;12.83;6.43;;;;;;;18.03;94.74;100369.01;123450;1102;104332;-77
2023/06/20 03:09:12;;;;;;;11.17;5.90;;;;;;;18.03;94.59;100376.97;123594;1102;104268;-79
2023/06/20 03:11:43;;;;;;;10.40;5.65;;;;;;;18.04;94.33;100386.69;123450;1102;104335;-78
2023/06/20 03:14:16;;;;;;;11.67;6.47;;;;;;;18.06;94.50;100378.73;123624;1101;104165;-78
2023/06/20 03:16:47;;;;;;;14.70;6.70;;;;;;;18.06;94.57;100384.04;123608;1102;104306;-77
2023/06/20 03:19:18;;;;;;;9.27;5.53;;;;;;;18.05;94.55;100385.81;123509;1099;104791;-77
2023/06/20 03:21:50;;;;;;;12.80;6.17;;;;;;;18.06;94.41;100389.35;123573;1102;104395;-77
2023/06/20 03:24:22;;;;;;;13.43;6.40;;;;;;;18.08;94.36;100390.27;123592;1102;104265;-77
2023/06/20 03:26:53;;;;;;;12.43;6.43;;;;;;;18.07;94.53;100392.02;123517;1102;104355;-77
2023/06/20 03:29:25;;;;;;;10.37;6.07;;;;;;;18.08;94.11;100400.88;123569;1100;104319;-78
2023/06/20 03:31:56;;;;;;;14.63;6.70;;;;;;;18.10;94.30;100396.45;123507;1102;104425;-76
2023/06/20 03:34:29;;;;;;;10.73;6.00;;;;;;;18.13;94.47;100407.09;123449;1102;104385;-76
2023/06/20 03:37:01;;;;;;;9.75;6.00;;;;;;;18.17;94.09;100400.00;123518;1102;104354;-77
2023/06/20 03:39:33;;;;;;;11.20;6.23;;;;;;;18.20;94.57;100406.23;123435;1101;104647;-78
2023/06/20 03:42:06;;;;;;;10.13;6.17;;;;;;;18.25;94.26;100398.28;123475;1102;104358;-76
2023/06/20 03:44:37;;;;;;;;;;;;;;;18.29;93.76;100398.30;123505;1102;104443;-78
2023/06/20 03:47:11;;;;;;;11.07;6.03;;;;;;;18.31;94.16;100396.52;123918;1102;104348;-79
2023/06/20 03:49:42;;;;;;;12.50;6.30;;;;;;;18.36;94.02;100400.97;123875;1102;104281;-79
2023/06/20 03:52:14;;;;;;;11.13;6.10;;;;;;;18.40;94.52;100405.38;123783;1102;104331;-78
2023/06/20 03:54:45;;;;;;;12.33;6.13;;;;;;;18.43;93.65;100411.61;123656;1102;118247;-77
2023/06/20 03:57:17;;;;;;;12.27;6.30;;;;;;;18.48;94.03;100414.25;123745;1102;104473;-78
2023/06/20 03:59:48;;;;;;;10.47;6.10;;;;;;;18.52;94.12;100416.03;123797;1102;104300;-78
2023/06/20 04:02:22;;;;;;;10.47;6.10;;;;;;;18.56;93.71;100417.83;123771;1102;104255;-78
2023/06/20 04:04:53;;;;;;;8.90;5.90;;;;;;;18.63;93.63;100426.69;123755;1102;104268;-79
2023/06/20 04:07:26;;;;;;;11.53;6.33;;;;;;;18.67;93.51;100426.69;123822;1102;104271;-79
2023/06/20 04:09:57;;;;;;;11.40;6.20;;;;;;;18.73;93.62;100430.23;123985;1102;104249;-78
2023/06/20 04:12:29;;;;;;;12.07;5.87;;;;;;;18.76;93.06;100424.92;123867;1102;104297;-80
2023/06/20 04:15:01;;;;;;;11.00;6.13;;;;;;;18.80;93.39;100432.02;123840;1102;104316;-79
2023/06/20 04:17:32;;;;;;;11.50;6.77;;;;;;;18.86;93.12;100432.94;124182;1102;104258;-77
2023/06/20 04:20:10;;;;;;;11.17;6.50;;;;;;;18.92;93.16;100437.38;124054;1099;104314;-78
2023/06/20 04:22:44;;;;;;;12.37;6.20;;;;;;;18.96;93.27;100433.81;123856;1102;104418;-76
2023/06/20 04:25:17;;;;;;;9.55;6.30;;;;;;;19.00;92.11;100453.34;123889;1102;104233;-76
2023/06/20 04:27:53;;;;;;;11.83;6.30;;;;;;;19.01;92.77;100442.70;123544;1100;104827;-77
2023/06/20 04:30:25;;;;;;;10.43;6.30;;;;;;;19.05;92.41;100448.90;123822;1102;104225;-78
2023/06/20 04:32:57;;;;;;;11.90;6.77;;;;;;;19.09;91.62;100444.45;123677;1102;104309;-79
2023/06/20 04:35:31;;;;;;;11.07;6.40;;;;;;;19.13;91.67;100454.22;123789;1099;104373;-76
2023/06/20 04:38:03;;;;;;;11.33;6.43;;;;;;;19.16;91.46;100454.22;123580;1102;104719;-81
2023/06/20 04:40:35;;;;;;;13.07;6.80;;;;;;;19.21;91.28;100461.33;123902;1102;104673;-78
2023/06/20 04:43:07;;;;;;;12.13;6.83;;;;;;;19.23;91.29;100453.34;123665;1102;104259;-79
2023/06/20 04:45:38;;;;;;;11.80;6.93;;;;;;;19.27;90.76;100459.53;123918;1102;104176;-79
2023/06/20 04:48:10;;;;;;;13.40;6.73;;;;;;;19.31;91.17;100466.64;123890;1102;104057;-79
2023/06/20 04:50:42;;;;;;;13.63;6.97;;;;;;;19.38;91.30;100466.63;123980;1099;104405;-78
2023/06/20 04:53:15;;;;;;;15.03;6.80;;;;;;;19.46;90.39;100474.61;124199;1102;104257;-77
2023/06/20 04:55:47;;;;;;;13.68;7.08;;;;;;;19.52;91.20;100476.36;123963;1101;104339;-79
2023/06/20 04:58:19;;;;;;;14.17;7.13;;;;;;;19.58;90.75;100471.02;123765;1102;104463;-80
2023/06/20 05:00:51;;;;;;;15.63;7.17;;;;;;;19.65;90.96;100472.80;123698;1102;104364;-76
2023/06/20 05:03:23;;;;;;;13.18;7.37;;;;;;;19.74;90.41;100467.45;123700;1101;104288;-77
2023/06/20 05:05:54;;;;;;;12.37;7.13;;;;;;;19.81;89.17;100467.47;123803;1102;104291;-77
2023/06/20 05:08:26;;;;;;;12.13;6.60;;;;;;;19.87;89.77;100468.33;124035;1102;104354;-78
2023/06/20 05:10:57;;;;;;;12.43;6.70;;;;;;;19.96;90.39;100477.17;124257;1100;104313;-80
2023/06/20 05:13:28;;;;;;;14.17;6.63;;;;;;;20.04;90.30;100472.70;123934;1100;104361;-78
2023/06/20 05:16:00;;;;;;;12.20;6.80;;;;;;;20.12;89.84;100478.91;124072;1099;104319;-77
2023/06/20 05:18:31;;;;;;;13.57;7.37;;;;;;;20.21;89.23;100478.88;124126;1102;104380;-76
2023/06/20 05:21:03;;;;;;;15.57;7.30;;;;;;;20.29;88.85;100486.83;124239;1102;104658;-79
2023/06/20 05:23:34;;;;;;;11.47;6.47;;;;;;;20.38;89.19;100483.22;124522;1100;103365;-80
2023/06/20 05:26:06;;;;;;;11.53;6.70;;;;;;;20.46;89.42;100476.97;124433;1102;104364;-78
2023/06/20 05:28:37;;;;;;;13.77;7.00;;;;;;;20.56;88.01;100482.25;124404;1100;104130;-75
2023/06/20 05:31:10;;;;;;;12.07;6.87;;;;;;;20.64;87.59;100483.08;124338;1102;104203;-78
2023/06/20 05:33:41;;;;;;;12.25;6.90;;;;;;;20.69;88.16;100481.30;124432;1102;103353;-80
2023/06/20 05:36:13;;;;;;;10.73;6.33;;;;;;;20.76;87.79;100482.16;124193;1102;104738;-77
2023/06/20 05:38:44;;;;;;;12.10;6.70;;;;;;;20.86;87.75;100488.31;124239;1100;104373;-81
2023/06/20 05:41:15;;;;;;;11.27;6.33;;;;;;;20.94;87.24;100481.14;124365;1102;104216;-77
2023/06/20 05:43:46;;;;;;;11.67;6.80;;;;;;;21.03;86.40;100481.06;124241;1102;103190;-77
2023/06/20 05:46:18;;;;;;;10.03;6.23;;;;;;;21.13;86.14;100487.20;124215;1099;104249;-77
2023/06/20 05:48:50;;;;;;;12.57;6.40;;;;;;;21.19;85.95;100477.39;124428;1102;104153;-80
2023/06/20 05:51:22;;;;;;;14.63;6.93;;;;;;;21.29;84.87;100482.66;124471;1100;104483;-80
2023/06/20 05:53:57;;;;;;;11.23;6.30;;;;;;;21.37;85.69;100480.80;124465;1102;104249;-76
2023/06/20 05:56:28;;;;;;;11.60;6.37;;;;;;;21.45;84.83;100472.72;124227;1102;104289;-75
2023/06/20 05:59:00;;;;;;;11.67;7.07;;;;;;;21.52;84.92;100474.47;124784;1102;102343;-79
2023/06/20 06:01:40;;;;;;;11.30;6.57;;;;;;;21.63;84.85;100477.00;124459;1102;104266;-76
2023/06/20 06:04:16;;;;;;;10.97;6.20;;;;;;;21.72;83.77;100476.91;124601;1102;104176;-76
2023/06/20 06:06:48;;;;;;;11.23;6.13;;;;;;;21.81;83.35;100479.48;124595;1102;104198;-79
2023/06/20 06:09:22;;;;;;;12.70;6.73;;;;;;;21.90;83.13;100475.84;124439;1102;104715;-78
2023/06/20 06:11:55;;;;;;;11.20;6.60;;;;;;;22.00;82.60;100473.94;124598;1099;104179;-81
2023/06/20 06:14:27;;;;;;;14.20;6.25;;;;;;;22.08;82.09;100482.77;124570;1102;104214;-77
2023/06/20 06:16:59;;;;;;;11.27;6.13;;;;;;;22.14;81.31;100477.31;124338;1102;104303;-79
2023/06/20 06:19:32;;;;;;;11.07;6.03;;;;;;;22.17;79.75;100489.77;124306;1102;104274;-75
2023/06/20 06:22:04;;;;;;;12.63;6.10;;;;;;;22.21;80.15;100486.16;124390;1102;104248;-79
2023/06/20 06:24:37;;;;;;;12.77;6.20;;;;;;;22.26;79.35;100489.66;124460;1102;102297;-76
2023/06/20 06:27:10;;;;;;;11.77;6.10;;;;;;;22.33;79.70;100494.06;124322;1102;102887;-77
2023/06/20 06:29:46;;;;;;;10.83;6.20;;;;;;;22.43;79.79;100498.37;126075;1102;102232;-79
2023/06/20 06:32:20;;;;;;;11.40;6.03;;;;;;;22.50;79.59;100490.27;124948;1100;103439;-80
2023/06/20 06:34:52;;;;;;;11.80;6.23;;;;;;;22.52;78.94;100492.02;124434;1102;104198;-81
2023/06/20 06:37:25;;;;;;;14.23;6.87;;;;;;;22.61;78.66;100491.89;124611;1102;102514;-79
2023/06/20 06:39:59;;;;;;;11.80;6.47;;;;;;;22.68;78.11;100489.14;124513;1102;104188;-78
2023/06/20 06:42:30;;;;;;;11.53;6.13;;;;;;;22.71;77.56;100491.77;124634;1102;104277;-80
2023/06/20 06:45:02;;;;;;;13.90;6.70;;;;;;;22.77;77.70;100484.53;124470;1101;104623;-79
2023/06/20 06:47:35;;;;;;;13.37;6.17;;;;;;;22.82;77.08;100489.81;124500;1099;104200;-78
2023/06/20 06:50:09;;;;;;;10.23;6.10;;;;;;;22.88;76.28;100484.37;124490;1102;104326;-80
2023/06/20 06:52:42;;;;;;;14.67;6.23;;;;;;;22.96;76.95;100492.27;126073;1102;103462;-82
2023/06/20 06:55:13;;;;;;;9.70;6.20;;;;;;;23.00;75.10;100482.40;126003;1102;102522;-81
2023/06/20 06:57:49;;;;;;;12.13;6.40;;;;;;;23.08;75.09;100483.19;126037;1102;101894;-80
2023/06/20 07:00:24;;;;;;;13.53;6.90;;;;;;;23.14;74.65;100496.50;124972;1099;101824;-79
2023/06/20 07:03:00;;;;;;;14.83;6.53;;;;;;;23.17;74.32;100485.74;124666;1099;104185;-82
2023/06/20 07:05:31;;;;;;;11.40;6.33;;;;;;;23.23;74.48;100474.91;124649;1099;104248;-81
2023/06/20 07:08:10;;;;;;;14.60;6.43;;;;;;;23.31;74.24;100473.00;124604;1102;103187;-77
2023/06/20 07:10:44;;;;;;;13.47;6.80;;;;;;;23.40;73.12;100474.61;124645;1101;102272;-77
2023/06/20 07:13:17;;;;;;;11.47;5.93;;;;;;;23.47;74.11;100475.41;124712;1102;104169;-79
2023/06/20 07:15:49;;;;;;;12.13;6.87;;;;;;;23.56;72.30;100480.61;124878;1102;104274;-82
2023/06/20 07:18:24;;;;;;;11.67;6.23;;;;;;;23.61;70.67;100472.48;124749;1099;104357;-80
2023/06/20 07:20:59;;;;;;;10.20;6.23;;;;;;;23.67;71.42;100464.34;125571;1102;102237;-81
2023/06/20 07:23:34;;;;;;;11.73;6.83;;;;;;;23.76;71.54;100464.13;124626;1102;103513;-80
2023/06/20 07:26:12;;;;;;;13.30;6.60;;;;;;;23.96;72.00;100461.09;124673;1101;102827;-76
2023/06/20 07:28:44;;;;;;;15.10;6.70;;;;;;;24.16;71.67;100458.00;124303;1102;104219;-82
2023/06/20 07:31:28;;;;;;;12.80;6.70;;;;;;;24.44;70.74;100472.62;124490;1102;103419;-77
2023/06/20 07:34:01;;;;;;;10.60;6.57;;;;;;;24.73;70.37;100472.00;124599;1101;104309;-76
2023/06/20 07:36:36;;;;;;;14.13;6.50;;;;;;;24.91;68.23;100473.35;124720;1102;104242;-80
2023/06/20 07:39:13;;;;;;;13.40;6.60;;;;;;;25.04;68.94;100471.24;124498;1102;104213;-78
2023/06/20 07:41:47;;;;;;;16.17;6.50;;;;;;;25.26;68.57;100474.30;124805;1102;104242;-81
2023/06/20 07:47:13;;;;;;;11.00;6.20;;;;;;;25.60;66.99;100471.64;124792;1102;102101;-83
2023/06/20 07:50:04;;;;;;;10.33;6.23;;;;;;;25.83;66.69;100468.29;124589;1099;103276;-83
2023/06/20 07:52:36;;;;;;;11.47;6.13;;;;;;;26.00;66.41;100467.84;125415;1102;104207;-81
2023/06/20 07:55:09;;;;;;;11.70;6.13;;;;;;;26.18;66.60;100465.57;124643;1099;102609;-80
2023/06/20 07:57:41;;;;;;;8.50;6.07;;;;;;;26.39;65.12;100464.03;126276;1099;103374;-79
2023/06/20 08:00:18;;;;;;;11.90;6.33;;;;;;;26.58;64.89;100477.78;126152;1099;102587;-83
2023/06/20 08:02:52;;;;;;;10.17;6.47;;;;;;;26.79;63.42;100470.89;126291;1100;102569;-82
2023/06/20 08:05:28;;;;;;;16.93;6.70;;;;;;;26.89;63.63;100477.72;124969;1101;103260;-79
2023/06/20 08:08:00;;;;;;;11.27;6.77;;;;;;;26.95;60.32;100482.04;124739;1102;104248;-82
2023/06/20 08:10:32;;;;;;;11.93;6.10;;;;;;;27.07;61.32;100481.64;126212;1102;102719;-76
2023/06/20 08:13:27;;;;;;;11.80;6.10;;;;;;;27.22;61.28;100469.48;125712;1100;104248;-80
2023/06/20 08:15:58;;;;;;;10.27;5.70;;;;;;;27.41;60.54;100467.06;124535;1102;103676;-79
2023/06/20 08:18:30;;;;;;;10.60;6.07;;;;;;;27.50;59.72;100465.84;124629;1102;104191;-76
2023/06/20 08:21:06;;;;;;;10.90;6.03;;;;;;;27.58;59.56;100466.48;124477;1102;103234;-81
2023/06/20 08:23:39;;;;;;;12.27;6.13;;;;;;;27.73;58.82;100456.07;124526;1102;104273;-76
2023/06/20 08:26:11;;;;;;;12.15;6.28;;;;;;;27.85;57.02;100461.02;124393;1101;104264;-80
2023/06/20 08:28:42;;;;;;;11.73;6.63;;;;;;;27.93;57.53;100466.12;124204;1102;104280;-77
2023/06/20 08:31:15;;;;;;;11.33;6.40;;;;;;;28.00;56.83;100454.19;124323;1102;104373;-75
2023/06/20 08:33:47;;;;;;;10.13;6.10;;;;;;;28.09;57.30;100453.84;124181;1102;104268;-76
2023/06/20 08:36:21;;;;;;;11.73;6.07;;;;;;;28.21;56.39;100465.13;126114;1102;103474;-80
2023/06/20 08:38:54;;;;;;;10.47;6.13;;;;;;;28.22;55.92;100462.38;126151;1102;101882;-78
2023/06/20 08:41:27;;;;;;;12.75;6.40;;;;;;;28.20;55.38;100466.93;126036;1102;102498;-74
2023/06/20 08:43:59;;;;;;;12.70;6.83;;;;;;;28.12;56.09;100459.12;125370;1098;104168;-78
2023/06/20 08:46:31;;;;;;;10.20;6.20;;;;;;;28.19;56.19;100461.59;124338;1099;102053;-78
2023/06/20 08:49:03;;;;;;;11.83;6.37;;;;;;;28.30;54.69;100467.48;124464;1102;103271;-78
2023/06/20 08:51:40;;;;;;;11.00;6.33;;;;;;;28.46;54.11;100467.75;124433;1102;104341;-80
2023/06/20 08:54:16;;;;;;;11.83;6.30;;;;;;;28.57;53.72;100457.41;124383;1102;103102;-81
2023/06/20 08:56:53;;;;;;;12.70;6.23;;;;;;;28.65;54.29;100459.83;124392;1099;104242;-78
2023/06/20 08:59:25;;;;;;;10.70;6.33;;;;;;;28.53;53.32;100457.59;124272;1101;104175;-78
2023/06/20 09:02:13;;;;;;;10.00;6.33;;;;;;;28.65;53.96;100449.03;124621;1102;104710;-81
2023/06/20 09:05:02;;;;;;;11.25;6.25;;;;;;;28.86;53.43;100449.99;124628;1102;104254;-82
2023/06/20 09:07:43;;;;;;;12.27;6.17;;;;;;;29.03;52.86;100460.97;124801;1102;103209;-83
2023/06/20 09:10:19;;;;;;;11.10;6.10;;;;;;;29.12;52.55;100451.58;124938;1102;103394;-80
2023/06/20 09:12:52;;;;;;;11.83;6.50;;;;;;;29.10;52.72;100444.50;124673;1102;104303;-77
2023/06/20 09:15:25;;;;;;;10.55;6.45;;;;;;;29.06;51.78;100454.53;124557;1102;104283;-78
2023/06/20 09:17:59;;;;;;;9.50;6.35;;;;;;;29.14;52.00;100448.81;124470;1102;104274;-82
2023/06/20 09:20:32;;;;;;;10.43;6.37;;;;;;;29.20;51.62;100452.19;124516;1099;104268;-81
2023/06/20 09:23:04;;;;;;;10.53;6.43;;;;;;;29.23;51.77;100448.45;124426;1102;105699;-81
2023/06/20 09:25:39;;;;;;;9.67;6.37;;;;;;;29.37;51.37;100454.17;124630;1099;104261;-83
2023/06/20 09:28:17;;;;;;;13.50;6.47;;;;;;;29.52;50.88;100449.90;124398;1102;104242;-79
2023/06/20 09:30:50;;;;;;;9.53;6.13;;;;;;;29.57;50.11;100453.27;124431;1102;104376;-80
2023/06/20 09:33:21;;;;;;;13.33;6.07;;;;;;;29.60;49.50;100449.56;124543;1102;104258;-82
2023/06/20 09:35:53;;;;;;;9.60;6.03;;;;;;;29.73;49.70;100442.67;124585;1102;104357;-79
2023/06/20 09:38:26;;;;;;;11.53;6.08;;;;;;;29.86;49.34;100447.56;124755;1102;104370;-79
2023/06/20 09:41:01;;;;;;;10.72;6.00;;;;;;;29.86;48.24;100443.02;124846;1102;103089;-81
2023/06/20 09:43:32;;;;;;;11.17;5.70;;;;;;;29.59;47.19;100436.98;124823;1102;104338;-79
2023/06/20 09:46:04;;;;;;;12.60;6.10;;;;;;;29.39;47.86;100445.99;124710;1102;104289;-80
2023/06/20 09:48:40;;;;;;;12.00;6.07;;;;;;;29.40;47.21;100440.52;124753;1102;102822;-79
2023/06/20 09:51:20;;;;;;;11.50;6.40;;;;;;;29.56;47.12;100445.22;124764;1102;104294;-80
2023/06/20 09:54:04;;;;;;;9.07;6.13;;;;;;;29.71;46.49;100439.14;125013;1102;104179;-82
2023/06/20 09:59:33;;;;;;;13.78;7.05;;;;;;;29.96;45.92;100435.35;124835;1102;104123;-79
2023/06/20 10:02:08;;;;;;;15.70;6.77;;;;;;;30.08;45.57;100444.73;124836;1102;102521;-80
2023/06/20 10:04:45;;;;;;;13.00;6.67;;;;;;;30.18;45.06;100437.06;124737;1102;104182;-79
2023/06/20 10:07:30;;;;;;;11.97;6.40;;;;;;;30.24;45.00;100442.19;126116;1102;102476;-80
2023/06/20 10:10:04;;;;;;;11.17;6.27;;;;;;;30.27;44.93;100440.20;126107;1102;102234;-78
2023/06/20 10:12:41;;;;;;;18.73;7.50;;;;;;;30.25;45.01;100435.83;126096;1102;102485;-78
2023/06/20 10:15:17;;;;;;;15.07;7.40;;;;;;;30.18;44.89;100437.92;126118;1099;102593;-78
2023/06/20 10:17:49;;;;;;;11.43;6.10;;;;;;;30.09;44.72;100432.94;126221;1102;101857;-81
2023/06/20 10:20:31;;;;;;;14.03;6.23;;;;;;;29.91;44.48;100435.56;126123;1102;102138;-79
2023/06/20 10:23:07;;;;;;;12.43;6.10;;;;;;;29.69;44.47;100434.77;126023;1102;106958;-81
2023/06/20 10:25:58;;;;;;;9.40;6.03;;;;;;;29.57;44.80;100438.88;125969;1102;103139;-80
2023/06/20 10:28:31;;;;;;;10.17;6.07;;;;;;;29.36;44.03;100438.89;126155;1100;101859;-81
2023/06/20 10:31:03;;;;;;;10.48;6.10;;;;;;;29.18;44.31;100440.52;126154;1101;102262;-81
2023/06/20 10:33:37;;;;;;;12.60;6.30;;;;;;;29.15;44.22;100439.78;126162;1101;102784;-78
2023/06/20 10:36:10;;;;;;;13.70;7.10;;;;;;;29.20;44.68;100437.78;126015;1102;101919;-81
2023/06/20 10:39:10;;;;;;;12.90;6.77;;;;;;;29.16;44.65;100436.14;126142;1101;102618;-81
2023/06/20 10:41:44;;;;;;;13.00;6.80;;;;;;;29.22;44.62;100433.20;126092;1102;102091;-80
2023/06/20 10:44:42;;;;;;;13.57;6.80;;;;;;;29.28;44.39;100432.05;126170;1099;102035;-78
2023/06/20 10:47:22;;;;;;;11.07;6.60;;;;;;;29.33;43.93;100430.05;126156;1099;102750;-78
2023/06/20 10:49:56;;;;;;;14.00;6.47;;;;;;;29.37;44.38;100429.84;126120;1102;103178;-78
2023/06/20 10:52:40;;;;;;;14.80;6.30;;;;;;;29.38;43.67;100425.31;126321;1099;102309;-76
2023/06/20 10:55:16;;;;;;;10.97;6.27;;;;;;;29.35;43.70;100431.72;124404;1102;103417;-78
2023/06/20 10:57:52;;;;;;;12.17;6.40;;;;;;;29.43;44.06;100423.27;124326;1102;104262;-75
2023/06/20 11:00:23;;;;;;;;;;;;;;;29.47;43.68;100424.91;124488;1102;104209;-74
2023/06/20 11:02:57;;;;;;;12.47;6.30;;;;;;;29.46;43.72;100420.44;124710;1101;104336;-77
2023/06/20 11:05:31;;;;;;;11.50;6.83;;;;;;;29.46;43.88;100412.33;124617;1102;104268;-75
2023/06/20 11:08:13;;;;;;;11.13;6.30;;;;;;;29.61;43.58;100417.98;124435;1101;102049;-73
2023/06/20 11:10:50;;;;;;;13.90;6.50;;;;;;;29.48;42.99;100421.27;124546;1102;104291;-75
2023/06/20 11:13:26;;;;;;;12.00;6.53;;;;;;;29.53;42.82;100413.82;124567;1100;102788;-76
2023/06/20 11:16:03;;;;;;;13.60;6.40;;;;;;;29.70;42.92;100418.47;124413;1102;104337;-76
2023/06/20 11:18:38;;;;;;;13.10;6.73;;;;;;;29.92;42.54;100409.41;124375;1101;104171;-78
2023/06/20 11:21:17;;;;;;;15.07;7.13;;;;;;;30.15;42.26;100405.60;124705;1101;104178;-78
2023/06/20 11:23:58;;;;;;;12.23;6.73;;;;;;;30.45;42.30;100407.84;124393;1099;103134;-75
2023/06/20 13:31:32;;;;;;;16.67;8.00;;;;;;;29.18;42.07;100345.09;124116;1102;104203;-76
2023/06/20 13:34:04;;;;;;;18.63;7.33;;;;;;;29.24;41.72;100347.55;123925;1106;104242;-79
2023/06/20 13:36:36;;;;;;;15.53;7.70;;;;;;;29.38;41.96;100347.80;124024;1105;102237;-81
2023/06/20 13:39:10;;;;;;;12.60;7.20;;;;;;;29.47;41.11;100346.52;124310;1105;104453;-82
2023/06/20 13:41:41;;;;;;;13.30;7.10;;;;;;;29.47;40.95;100340.25;124242;1102;103430;-78
2023/06/20 13:44:14;;;;;;;10.83;6.53;;;;;;;29.54;40.57;100344.41;124148;1105;104259;-79